Yuho Maru No.8 — JD3870 — position and weather

sailwx.info

Track history (hours):
 
Tides and Currents Weather Stations Pressure Air Temp Water Temp Dewpoint Dewpoint Depression Visibility Wind Speed Wind Dir Waves Ship Positions

Yuho Maru No.8

Last reported at 2017-Dec-10 15:25 UTC. Time now 2017-Dec-11 02:03 UTC.
Position N 34°31' E 138°14'.

Length 61 m; draft 4.4 m.

Type: Ship. MMSI: 431006905.

Date/timePositionNaut miles runAvg speedWind from/ knotsBaromVisibWave heightAir tempDewpointWater temp
2017-Dec-10 15:25N 34°31' E 138°14'1210.6
2017-Dec-10 14:17N 34°34' E 138°28'310.7
2017-Dec-10 13:59N 34°35' E 138°32'710.4
2017-Dec-10 13:21N 34°35' E 138°40'511.4
2017-Dec-10 12:54N 34°35' E 138°46'610.6
2017-Dec-10 12:22N 34°35' E 138°53'410.1
2017-Dec-10 12:00N 34°36' E 138°57'611.5
2017-Dec-10 11:31N 34°40' E 139°02'611.9
2017-Dec-10 10:59N 34°45' E 139°07'611.4
2017-Dec-10 10:29N 34°50' E 139°11'510.7
2017-Dec-10 10:00N 34°53' E 139°16'5 9.5
2017-Dec-10 09:30N 34°56' E 139°20'5 8.8
2017-Dec-10 08:58N 34°58' E 139°26'4 8.8
2017-Dec-10 08:30N 35°00' E 139°30'5 9.4
2017-Dec-10 07:59N 35°03' E 139°35'5 9.9
2017-Dec-10 07:30N 35°06' E 139°39'510.6
2017-Dec-10 07:01N 35°10' E 139°44'5 9.8
2017-Dec-10 06:30N 35°15' E 139°46'510.7
2017-Dec-10 06:00N 35°19' E 139°43'510.3
2017-Dec-10 05:30N 35°24' E 139°43'510.0
2017-Dec-10 05:00N 35°27' E 139°47'3 6.1
2017-Dec-10 04:26N 35°30' E 139°50'0 0.1
2017-Dec-10 04:00N 35°30' E 139°50'5 9.5
2017-Dec-10 03:30N 35°30' E 139°56'4 8.1
2017-Dec-10 03:00N 35°28' E 140°01'0 0.0
2017-Dec-09 23:07N 35°28' E 140°01'0 0.1
2017-Dec-09 23:00N 35°28' E 140°01'4 7.7
2017-Dec-09 22:30N 35°32' E 139°59'612.6
2017-Dec-09 22:00N 35°38' E 139°59'2 0.1
2017-Dec-08 22:58N 35°41' E 139°59'2 3.6
2017-Dec-08 22:26N 35°39' E 139°59'510.6
2017-Dec-08 22:00N 35°34' E 139°58'611.7
2017-Dec-08 21:30N 35°29' E 139°55'0 0.9
2017-Dec-08 21:00N 35°28' E 139°55'0 0.0
2017-Dec-08 20:30N 35°28' E 139°55'0 0.0
2017-Dec-08 20:00N 35°28' E 139°55'0 0.0
2017-Dec-08 19:30N 35°28' E 139°55'0 0.0
2017-Dec-08 18:57N 35°28' E 139°55'0 0.0
2017-Dec-08 18:30N 35°28' E 139°55'0 0.0
2017-Dec-08 17:57N 35°28' E 139°55'0 0.0
2017-Dec-08 17:27N 35°28' E 139°55'0 0.1
2017-Dec-08 17:00N 35°28' E 139°55'0 0.0
2017-Dec-08 16:30N 35°28' E 139°55'0 0.0
2017-Dec-08 16:00N 35°28' E 139°55'0 0.0
2017-Dec-08 15:24N 35°28' E 139°55'0 0.0
2017-Dec-08 15:00N 35°28' E 139°55'0 0.0
2017-Dec-08 14:24N 35°28' E 139°55'0 0.0
2017-Dec-08 14:00N 35°28' E 139°55'0 0.0
2017-Dec-08 13:30N 35°28' E 139°55'0 0.0
2017-Dec-08 12:57N 35°28' E 139°55'0 0.0
2017-Dec-08 12:27N 35°28' E 139°55'0 0.0
2017-Dec-08 11:57N 35°28' E 139°55'0 0.0
2017-Dec-08 11:30N 35°28' E 139°55'0 0.1
2017-Dec-08 11:00N 35°28' E 139°55'2 3.9
2017-Dec-08 10:30N 35°28' E 139°58'1 1.1
2017-Dec-08 09:20N 35°27' E 139°58'0 0.0
2017-Dec-08 08:50N 35°27' E 139°58'0 0.0
2017-Dec-08 08:26N 35°27' E 139°58'0 0.0
2017-Dec-08 07:50N 35°27' E 139°58'0 0.0
2017-Dec-08 07:26N 35°27' E 139°58'0 0.0
2017-Dec-08 07:00N 35°27' E 139°58'2 4.5
2017-Dec-08 06:30N 35°29' E 139°58'4 7.1
2017-Dec-08 06:00N 35°30' E 140°02'0 0.0
2017-Dec-08 05:28N 35°30' E 140°02'0 0.0
2017-Dec-08 01:25N 35°30' E 140°02'0 0.0
2017-Dec-08 01:00N 35°30' E 140°02'2 3.4
2017-Dec-08 00:30N 35°31' E 140°00'0 0.0
2017-Dec-07 23:58N 35°31' E 140°00'2 5.2
2017-Dec-07 23:31N 35°33' E 139°59'8 0.4
2017-Dec-07 06:12N 35°41' E 139°59'0 0.7
2017-Dec-07 06:00N 35°41' E 139°59'4 8.8
2017-Dec-07 05:31N 35°36' E 139°58'612.0
2017-Dec-07 05:00N 35°31' E 139°55'5 9.6
2017-Dec-07 04:30N 35°28' E 139°60'0 0.1
2017-Dec-06 23:53N 35°28' E 140°00'1 3.9
2017-Dec-06 23:30N 35°29' E 139°59'4 7.3
2017-Dec-06 23:00N 35°28' E 139°54'0 0.0
2017-Dec-06 22:24N 35°28' E 139°54'0 0.0
2017-Dec-06 21:54N 35°28' E 139°54'0 0.0
2017-Dec-06 21:27N 35°28' E 139°54'0 0.0
2017-Dec-06 21:00N 35°28' E 139°54'  
2017-Dec-04 10:30N 34°42' E 139°04'611.5
2017-Dec-04 10:00N 34°46' E 139°08'611.8
2017-Dec-04 09:31N 34°50' E 139°13'610.9
2017-Dec-04 09:00N 34°54' E 139°18'5 9.9
2017-Dec-04 08:30N 34°56' E 139°24'5 9.6
2017-Dec-04 07:59N 34°59' E 139°28'5 9.9
2017-Dec-04 07:30N 35°02' E 139°33'510.7
2017-Dec-04 07:00N 35°05' E 139°39'611.1
2017-Dec-04 06:30N 35°08' E 139°44'611.4
2017-Dec-04 06:01N 35°14' E 139°46'510.9
2017-Dec-04 05:30N 35°19' E 139°43'510.3
2017-Dec-04 05:00N 35°24' E 139°43'611.2
2017-Dec-04 04:30N 35°27' E 139°48'611.3
2017-Dec-04 04:00N 35°30' E 139°54'611.3
2017-Dec-04 03:30N 35°30' E 140°01'1 0.3
2017-Dec-03 23:26N 35°30' E 140°02'1 2.2
2017-Dec-03 23:01N 35°30' E 140°01'1 1.1
2017-Dec-03 22:30N 35°31' E 140°00'0 0.0
2017-Dec-03 21:55N 35°31' E 140°00'0 0.1
2017-Dec-03 21:22N 35°31' E 140°00'0 0.1
2017-Dec-03 20:58N 35°31' E 140°00'0 0.0
2017-Dec-03 20:28N 35°31' E 140°00'2 4.3
2017-Dec-03 20:00N 35°30' E 139°58'612.3
2017-Dec-03 19:30N 35°28' E 139°51'612.1
2017-Dec-03 19:01N 35°23' E 139°46'611.4
2017-Dec-03 18:30N 35°18' E 139°45'612.5
2017-Dec-03 18:00N 35°12' E 139°47'612.1
2017-Dec-03 17:31N 35°06' E 139°45'611.9
2017-Dec-03 17:00N 35°02' E 139°39'713.4
2017-Dec-03 16:30N 34°58' E 139°33'814.1
2017-Dec-03 15:58N 34°53' E 139°25'714.3
2017-Dec-03 15:29N 34°50' E 139°18'713.8
2017-Dec-03 14:59N 34°45' E 139°12'713.2
2017-Dec-03 14:28N 34°41' E 139°06'613.0
2017-Dec-03 14:01N 34°37' E 139°00'713.8
2017-Dec-03 13:30N 34°35' E 138°52'713.2
2017-Dec-03 13:00N 34°34' E 138°44'813.0
2017-Dec-03 12:24N 34°34' E 138°34'513.6
2017-Dec-03 12:00N 34°33' E 138°28'713.5
2017-Dec-03 11:28N 34°33' E 138°19'5112.9
2017-Dec-03 07:30N 34°32' E 137°17'2211.3
2017-Dec-03 05:34N 34°39' E 136°52'111.8
2017-Dec-03 05:28N 34°40' E 136°51'612.1
2017-Dec-03 04:57N 34°45' E 136°47'512.2
2017-Dec-03 04:30N 34°50' E 136°44'612.2
2017-Dec-03 04:00N 34°56' E 136°42'3 5.4
2017-Dec-03 03:26N 34°59' E 136°40'0 0.0
2017-Dec-03 02:56N 34°59' E 136°40'0 0.0
2017-Dec-03 02:29N 34°59' E 136°40'0 0.0
2017-Dec-03 01:56N 34°59' E 136°40'0 0.0
2017-Dec-03 01:26N 34°59' E 136°40'0 0.0
2017-Dec-03 00:56N 34°59' E 136°40'0 0.0
2017-Dec-03 00:30N 34°59' E 136°40'1 3.0
2017-Dec-03 00:00N 34°57' E 136°41'0 0.4
2017-Dec-02 23:30N 34°57' E 136°41'3 6.4
2017-Dec-02 23:00N 34°54' E 136°42'510.2
2017-Dec-02 22:30N 34°50' E 136°45'510.3
2017-Dec-02 22:00N 34°45' E 136°48'510.8
2017-Dec-02 21:30N 34°40' E 136°51'1211.3
2017-Dec-02 20:24N 34°33' E 137°03'611.4
2017-Dec-02 19:53N 34°32' E 137°10'4711.4
2017-Dec-02 15:46N 34°33' E 138°07'311.6
2017-Dec-02 15:30N 34°33' E 138°11'611.0
2017-Dec-02 14:58N 34°33' E 138°18'610.4
2017-Dec-02 14:24N 34°34' E 138°25'410.2
2017-Dec-02 13:59N 34°35' E 138°30'610.1
2017-Dec-02 13:25N 34°35' E 138°37'510.2
2017-Dec-02 12:56N 34°35' E 138°43'510.0
2017-Dec-02 12:29N 34°35' E 138°48'5 9.8
2017-Dec-02 12:00N 34°36' E 138°54'5 9.2
2017-Dec-02 11:30N 34°38' E 138°59'510.6
2017-Dec-02 11:00N 34°42' E 139°03'511.0
2017-Dec-02 10:30N 34°46' E 139°07'611.2
2017-Dec-02 09:58N 34°51' E 139°12'510.8
2017-Dec-02 09:29N 34°54' E 139°17'510.1
2017-Dec-02 09:00N 34°57' E 139°22'610.2
2017-Dec-02 08:24N 35°00' E 139°28'410.2
2017-Dec-02 08:00N 35°03' E 139°32'611.0
2017-Dec-02 07:30N 35°06' E 139°38'611.7
2017-Dec-02 07:00N 35°09' E 139°43'611.3
2017-Dec-02 06:30N 35°14' E 139°46'611.4
2017-Dec-02 06:00N 35°19' E 139°43'510.8
2017-Dec-02 05:30N 35°25' E 139°43'611.6
2017-Dec-02 05:00N 35°28' E 139°49'510.3
2017-Dec-02 04:30N 35°29' E 139°55'1 1.0
2017-Dec-02 03:56N 35°29' E 139°56'2 3.7
2017-Dec-02 03:30N 35°29' E 139°57'4 7.4
2017-Dec-02 03:00N 35°30' E 140°02'0 0.0
2017-Dec-01 23:26N 35°30' E 140°02'0 1.2
2017-Dec-01 23:00N 35°30' E 140°01'2 4.7
2017-Dec-01 22:30N 35°30' E 139°59'4 7.2
2017-Dec-01 22:00N 35°28' E 139°55'0 0.0
2017-Dec-01 21:20N 35°28' E 139°55'0 0.0
2017-Dec-01 20:53N 35°28' E 139°55'0 0.0
2017-Dec-01 20:26N 35°28' E 139°55'0 0.0
2017-Dec-01 19:59N 35°28' E 139°55'0 0.0
2017-Dec-01 19:29N 35°28' E 139°55'0 0.0
2017-Dec-01 18:59N 35°28' E 139°55'0 0.0
2017-Dec-01 18:17N 35°28' E 139°55'0 0.0
2017-Dec-01 17:59N 35°28' E 139°55'0 0.0
2017-Dec-01 17:29N 35°28' E 139°55'0 0.0
2017-Dec-01 16:56N 35°28' E 139°55'0 0.0
2017-Dec-01 16:29N 35°28' E 139°55'0 0.0
2017-Dec-01 15:56N 35°28' E 139°55'0 0.0
2017-Dec-01 15:29N 35°28' E 139°55'0 0.0
2017-Dec-01 14:59N 35°28' E 139°55'0 0.0
2017-Dec-01 14:29N 35°28' E 139°55'0 0.0
2017-Dec-01 13:53N 35°28' E 139°55'0 0.0
2017-Dec-01 13:29N 35°28' E 139°55'0 0.0
2017-Dec-01 12:56N 35°28' E 139°55'0 0.0
2017-Dec-01 12:26N 35°28' E 139°55'0 0.0
2017-Dec-01 11:53N 35°28' E 139°55'0 0.0
2017-Dec-01 11:26N 35°28' E 139°55'0 0.0
2017-Dec-01 10:56N 35°28' E 139°55'0 0.0
2017-Dec-01 10:26N 35°28' E 139°55'0 0.0
2017-Dec-01 09:59N 35°28' E 139°55'0 0.0
2017-Dec-01 09:30N 35°28' E 139°55'3 6.6
2017-Dec-01 09:00N 35°27' E 139°58'0 0.4
2017-Dec-01 08:28N 35°27' E 139°58'0 0.0
2017-Dec-01 07:58N 35°27' E 139°58'0 0.0
2017-Dec-01 07:19N 35°27' E 139°58'0 0.0
2017-Dec-01 06:58N 35°27' E 139°58'0 0.0
2017-Dec-01 06:28N 35°27' E 139°58'0 0.0
2017-Dec-01 05:58N 35°27' E 139°58'0 0.0
2017-Dec-01 05:29N 35°27' E 139°58'2 5.0
2017-Dec-01 05:00N 35°29' E 139°58'3 5.5
2017-Dec-01 04:28N 35°30' E 140°02'0 0.0
2017-Dec-01 00:38N 35°30' E 140°02'0 0.2
2017-Dec-01 00:31N 35°30' E 140°02'2 4.7
2017-Dec-01 00:00N 35°30' E 139°59'3 5.6
2017-Nov-30 23:30N 35°30' E 139°56'511.0
2017-Nov-30 23:00N 35°27' E 139°50'611.5
2017-Nov-30 22:30N 35°23' E 139°46'510.5
2017-Nov-30 22:00N 35°17' E 139°45'511.0
2017-Nov-30 21:30N 35°12' E 139°47'612.2
2017-Nov-30 21:00N 35°06' E 139°46'612.3
2017-Nov-30 20:30N 35°02' E 139°41'713.2
2017-Nov-30 19:59N 34°58' E 139°34'714.2
2017-Nov-30 19:28N 34°54' E 139°26'713.0
2017-Nov-30 18:57N 34°50' E 139°20'612.5
2017-Nov-30 18:29N 34°46' E 139°14'713.0
2017-Nov-30 17:57N 34°42' E 139°07'612.3
2017-Nov-30 17:30N 34°39' E 139°02'611.7
2017-Nov-30 17:00N 34°35' E 138°56'813.5
2017-Nov-30 16:26N 34°35' E 138°47'613.6
2017-Nov-30 16:00N 34°34' E 138°40'  
Track history (hours):
 
Tides and Currents Weather Stations Pressure Air Temp Water Temp Dewpoint Dewpoint Depression Visibility Wind Speed Wind Dir Waves Ship Positions

Yuho Maru No.8

Last reported at 2017-Dec-10 15:25 UTC. Time now 2017-Dec-11 02:03 UTC.
Position N 34°31' E 138°14'.

Length 61 m; draft 4.4 m.

Type: Ship. MMSI: 431006905.

Date/timePositionNaut miles runAvg speedWind from/ knotsBaromVisibWave heightAir tempDewpointWater temp
2017-Dec-10 15:25N 34°31' E 138°14'1210.6
2017-Dec-10 14:17N 34°34' E 138°28'310.7
2017-Dec-10 13:59N 34°35' E 138°32'710.4
2017-Dec-10 13:21N 34°35' E 138°40'511.4
2017-Dec-10 12:54N 34°35' E 138°46'610.6
2017-Dec-10 12:22N 34°35' E 138°53'410.1
2017-Dec-10 12:00N 34°36' E 138°57'611.5
2017-Dec-10 11:31N 34°40' E 139°02'611.9
2017-Dec-10 10:59N 34°45' E 139°07'611.4
2017-Dec-10 10:29N 34°50' E 139°11'510.7
2017-Dec-10 10:00N 34°53' E 139°16'5 9.5
2017-Dec-10 09:30N 34°56' E 139°20'5 8.8
2017-Dec-10 08:58N 34°58' E 139°26'4 8.8
2017-Dec-10 08:30N 35°00' E 139°30'5 9.4
2017-Dec-10 07:59N 35°03' E 139°35'5 9.9
2017-Dec-10 07:30N 35°06' E 139°39'510.6
2017-Dec-10 07:01N 35°10' E 139°44'5 9.8
2017-Dec-10 06:30N 35°15' E 139°46'510.7
2017-Dec-10 06:00N 35°19' E 139°43'510.3
2017-Dec-10 05:30N 35°24' E 139°43'510.0
2017-Dec-10 05:00N 35°27' E 139°47'3 6.1
2017-Dec-10 04:26N 35°30' E 139°50'0 0.1
2017-Dec-10 04:00N 35°30' E 139°50'5 9.5
2017-Dec-10 03:30N 35°30' E 139°56'4 8.1
2017-Dec-10 03:00N 35°28' E 140°01'0 0.0
2017-Dec-09 23:07N 35°28' E 140°01'0 0.1
2017-Dec-09 23:00N 35°28' E 140°01'4 7.7
2017-Dec-09 22:30N 35°32' E 139°59'612.6
2017-Dec-09 22:00N 35°38' E 139°59'2 0.1
2017-Dec-08 22:58N 35°41' E 139°59'2 3.6
2017-Dec-08 22:26N 35°39' E 139°59'510.6
2017-Dec-08 22:00N 35°34' E 139°58'611.7
2017-Dec-08 21:30N 35°29' E 139°55'0 0.9
2017-Dec-08 21:00N 35°28' E 139°55'0 0.0
2017-Dec-08 20:30N 35°28' E 139°55'0 0.0
2017-Dec-08 20:00N 35°28' E 139°55'0 0.0
2017-Dec-08 19:30N 35°28' E 139°55'0 0.0
2017-Dec-08 18:57N 35°28' E 139°55'0 0.0
2017-Dec-08 18:30N 35°28' E 139°55'0 0.0
2017-Dec-08 17:57N 35°28' E 139°55'0 0.0
2017-Dec-08 17:27N 35°28' E 139°55'0 0.1
2017-Dec-08 17:00N 35°28' E 139°55'0 0.0
2017-Dec-08 16:30N 35°28' E 139°55'0 0.0
2017-Dec-08 16:00N 35°28' E 139°55'0 0.0
2017-Dec-08 15:24N 35°28' E 139°55'0 0.0
2017-Dec-08 15:00N 35°28' E 139°55'0 0.0
2017-Dec-08 14:24N 35°28' E 139°55'0 0.0
2017-Dec-08 14:00N 35°28' E 139°55'0 0.0
2017-Dec-08 13:30N 35°28' E 139°55'0 0.0
2017-Dec-08 12:57N 35°28' E 139°55'0 0.0
2017-Dec-08 12:27N 35°28' E 139°55'0 0.0
2017-Dec-08 11:57N 35°28' E 139°55'0 0.0
2017-Dec-08 11:30N 35°28' E 139°55'0 0.1
2017-Dec-08 11:00N 35°28' E 139°55'2 3.9
2017-Dec-08 10:30N 35°28' E 139°58'1 1.1
2017-Dec-08 09:20N 35°27' E 139°58'0 0.0
2017-Dec-08 08:50N 35°27' E 139°58'0 0.0
2017-Dec-08 08:26N 35°27' E 139°58'0 0.0
2017-Dec-08 07:50N 35°27' E 139°58'0 0.0
2017-Dec-08 07:26N 35°27' E 139°58'0 0.0
2017-Dec-08 07:00N 35°27' E 139°58'2 4.5
2017-Dec-08 06:30N 35°29' E 139°58'4 7.1
2017-Dec-08 06:00N 35°30' E 140°02'0 0.0
2017-Dec-08 05:28N 35°30' E 140°02'0 0.0
2017-Dec-08 01:25N 35°30' E 140°02'0 0.0
2017-Dec-08 01:00N 35°30' E 140°02'2 3.4
2017-Dec-08 00:30N 35°31' E 140°00'0 0.0
2017-Dec-07 23:58N 35°31' E 140°00'2 5.2
2017-Dec-07 23:31N 35°33' E 139°59'8 0.4
2017-Dec-07 06:12N 35°41' E 139°59'0 0.7
2017-Dec-07 06:00N 35°41' E 139°59'4 8.8
2017-Dec-07 05:31N 35°36' E 139°58'612.0
2017-Dec-07 05:00N 35°31' E 139°55'5 9.6
2017-Dec-07 04:30N 35°28' E 139°60'0 0.1
2017-Dec-06 23:53N 35°28' E 140°00'1 3.9
2017-Dec-06 23:30N 35°29' E 139°59'4 7.3
2017-Dec-06 23:00N 35°28' E 139°54'0 0.0
2017-Dec-06 22:24N 35°28' E 139°54'0 0.0
2017-Dec-06 21:54N 35°28' E 139°54'0 0.0
2017-Dec-06 21:27N 35°28' E 139°54'0 0.0
2017-Dec-06 21:00N 35°28' E 139°54'  
2017-Dec-04 10:30N 34°42' E 139°04'611.5
2017-Dec-04 10:00N 34°46' E 139°08'611.8
2017-Dec-04 09:31N 34°50' E 139°13'610.9
2017-Dec-04 09:00N 34°54' E 139°18'5 9.9
2017-Dec-04 08:30N 34°56' E 139°24'5 9.6
2017-Dec-04 07:59N 34°59' E 139°28'5 9.9
2017-Dec-04 07:30N 35°02' E 139°33'510.7
2017-Dec-04 07:00N 35°05' E 139°39'611.1
2017-Dec-04 06:30N 35°08' E 139°44'611.4
2017-Dec-04 06:01N 35°14' E 139°46'510.9
2017-Dec-04 05:30N 35°19' E 139°43'510.3
2017-Dec-04 05:00N 35°24' E 139°43'611.2
2017-Dec-04 04:30N 35°27' E 139°48'611.3
2017-Dec-04 04:00N 35°30' E 139°54'611.3
2017-Dec-04 03:30N 35°30' E 140°01'1 0.3
2017-Dec-03 23:26N 35°30' E 140°02'1 2.2
2017-Dec-03 23:01N 35°30' E 140°01'1 1.1
2017-Dec-03 22:30N 35°31' E 140°00'0 0.0
2017-Dec-03 21:55N 35°31' E 140°00'0 0.1
2017-Dec-03 21:22N 35°31' E 140°00'0 0.1
2017-Dec-03 20:58N 35°31' E 140°00'0 0.0
2017-Dec-03 20:28N 35°31' E 140°00'2 4.3
2017-Dec-03 20:00N 35°30' E 139°58'612.3
2017-Dec-03 19:30N 35°28' E 139°51'612.1
2017-Dec-03 19:01N 35°23' E 139°46'611.4
2017-Dec-03 18:30N 35°18' E 139°45'612.5
2017-Dec-03 18:00N 35°12' E 139°47'612.1
2017-Dec-03 17:31N 35°06' E 139°45'611.9
2017-Dec-03 17:00N 35°02' E 139°39'713.4
2017-Dec-03 16:30N 34°58' E 139°33'814.1
2017-Dec-03 15:58N 34°53' E 139°25'714.3
2017-Dec-03 15:29N 34°50' E 139°18'713.8
2017-Dec-03 14:59N 34°45' E 139°12'713.2
2017-Dec-03 14:28N 34°41' E 139°06'613.0
2017-Dec-03 14:01N 34°37' E 139°00'713.8
2017-Dec-03 13:30N 34°35' E 138°52'713.2
2017-Dec-03 13:00N 34°34' E 138°44'813.0
2017-Dec-03 12:24N 34°34' E 138°34'513.6
2017-Dec-03 12:00N 34°33' E 138°28'713.5
2017-Dec-03 11:28N 34°33' E 138°19'5112.9
2017-Dec-03 07:30N 34°32' E 137°17'2211.3
2017-Dec-03 05:34N 34°39' E 136°52'111.8
2017-Dec-03 05:28N 34°40' E 136°51'612.1
2017-Dec-03 04:57N 34°45' E 136°47'512.2
2017-Dec-03 04:30N 34°50' E 136°44'612.2
2017-Dec-03 04:00N 34°56' E 136°42'3 5.4
2017-Dec-03 03:26N 34°59' E 136°40'0 0.0
2017-Dec-03 02:56N 34°59' E 136°40'0 0.0
2017-Dec-03 02:29N 34°59' E 136°40'0 0.0
2017-Dec-03 01:56N 34°59' E 136°40'0 0.0
2017-Dec-03 01:26N 34°59' E 136°40'0 0.0
2017-Dec-03 00:56N 34°59' E 136°40'0 0.0
2017-Dec-03 00:30N 34°59' E 136°40'1 3.0
2017-Dec-03 00:00N 34°57' E 136°41'0 0.4
2017-Dec-02 23:30N 34°57' E 136°41'3 6.4
2017-Dec-02 23:00N 34°54' E 136°42'510.2
2017-Dec-02 22:30N 34°50' E 136°45'510.3
2017-Dec-02 22:00N 34°45' E 136°48'510.8
2017-Dec-02 21:30N 34°40' E 136°51'1211.3
2017-Dec-02 20:24N 34°33' E 137°03'611.4
2017-Dec-02 19:53N 34°32' E 137°10'4711.4
2017-Dec-02 15:46N 34°33' E 138°07'311.6
2017-Dec-02 15:30N 34°33' E 138°11'611.0
2017-Dec-02 14:58N 34°33' E 138°18'610.4
2017-Dec-02 14:24N 34°34' E 138°25'410.2
2017-Dec-02 13:59N 34°35' E 138°30'610.1
2017-Dec-02 13:25N 34°35' E 138°37'510.2
2017-Dec-02 12:56N 34°35' E 138°43'510.0
2017-Dec-02 12:29N 34°35' E 138°48'5 9.8
2017-Dec-02 12:00N 34°36' E 138°54'5 9.2
2017-Dec-02 11:30N 34°38' E 138°59'510.6
2017-Dec-02 11:00N 34°42' E 139°03'511.0
2017-Dec-02 10:30N 34°46' E 139°07'611.2
2017-Dec-02 09:58N 34°51' E 139°12'510.8
2017-Dec-02 09:29N 34°54' E 139°17'510.1
2017-Dec-02 09:00N 34°57' E 139°22'610.2
2017-Dec-02 08:24N 35°00' E 139°28'410.2
2017-Dec-02 08:00N 35°03' E 139°32'611.0
2017-Dec-02 07:30N 35°06' E 139°38'611.7
2017-Dec-02 07:00N 35°09' E 139°43'611.3
2017-Dec-02 06:30N 35°14' E 139°46'611.4
2017-Dec-02 06:00N 35°19' E 139°43'510.8
2017-Dec-02 05:30N 35°25' E 139°43'611.6
2017-Dec-02 05:00N 35°28' E 139°49'510.3
2017-Dec-02 04:30N 35°29' E 139°55'1 1.0
2017-Dec-02 03:56N 35°29' E 139°56'2 3.7
2017-Dec-02 03:30N 35°29' E 139°57'4 7.4
2017-Dec-02 03:00N 35°30' E 140°02'0 0.0
2017-Dec-01 23:26N 35°30' E 140°02'0 1.2
2017-Dec-01 23:00N 35°30' E 140°01'2 4.7
2017-Dec-01 22:30N 35°30' E 139°59'4 7.2
2017-Dec-01 22:00N 35°28' E 139°55'0 0.0
2017-Dec-01 21:20N 35°28' E 139°55'0 0.0
2017-Dec-01 20:53N 35°28' E 139°55'0 0.0
2017-Dec-01 20:26N 35°28' E 139°55'0 0.0
2017-Dec-01 19:59N 35°28' E 139°55'0 0.0
2017-Dec-01 19:29N 35°28' E 139°55'0 0.0
2017-Dec-01 18:59N 35°28' E 139°55'0 0.0
2017-Dec-01 18:17N 35°28' E 139°55'0 0.0
2017-Dec-01 17:59N 35°28' E 139°55'0 0.0
2017-Dec-01 17:29N 35°28' E 139°55'0 0.0
2017-Dec-01 16:56N 35°28' E 139°55'0 0.0
2017-Dec-01 16:29N 35°28' E 139°55'0 0.0
2017-Dec-01 15:56N 35°28' E 139°55'0 0.0
2017-Dec-01 15:29N 35°28' E 139°55'0 0.0
2017-Dec-01 14:59N 35°28' E 139°55'0 0.0
2017-Dec-01 14:29N 35°28' E 139°55'0 0.0
2017-Dec-01 13:53N 35°28' E 139°55'0 0.0
2017-Dec-01 13:29N 35°28' E 139°55'0 0.0
2017-Dec-01 12:56N 35°28' E 139°55'0 0.0
2017-Dec-01 12:26N 35°28' E 139°55'0 0.0
2017-Dec-01 11:53N 35°28' E 139°55'0 0.0
2017-Dec-01 11:26N 35°28' E 139°55'0 0.0
2017-Dec-01 10:56N 35°28' E 139°55'0 0.0
2017-Dec-01 10:26N 35°28' E 139°55'0 0.0
2017-Dec-01 09:59N 35°28' E 139°55'0 0.0
2017-Dec-01 09:30N 35°28' E 139°55'3 6.6
2017-Dec-01 09:00N 35°27' E 139°58'0 0.4
2017-Dec-01 08:28N 35°27' E 139°58'0 0.0
2017-Dec-01 07:58N 35°27' E 139°58'0 0.0
2017-Dec-01 07:19N 35°27' E 139°58'0 0.0
2017-Dec-01 06:58N 35°27' E 139°58'0 0.0
2017-Dec-01 06:28N 35°27' E 139°58'0 0.0
2017-Dec-01 05:58N 35°27' E 139°58'0 0.0
2017-Dec-01 05:29N 35°27' E 139°58'2 5.0
2017-Dec-01 05:00N 35°29' E 139°58'3 5.5
2017-Dec-01 04:28N 35°30' E 140°02'0 0.0
2017-Dec-01 00:38N 35°30' E 140°02'0 0.2
2017-Dec-01 00:31N 35°30' E 140°02'2 4.7
2017-Dec-01 00:00N 35°30' E 139°59'3 5.6
2017-Nov-30 23:30N 35°30' E 139°56'511.0
2017-Nov-30 23:00N 35°27' E 139°50'611.5
2017-Nov-30 22:30N 35°23' E 139°46'510.5
2017-Nov-30 22:00N 35°17' E 139°45'511.0
2017-Nov-30 21:30N 35°12' E 139°47'612.2
2017-Nov-30 21:00N 35°06' E 139°46'612.3
2017-Nov-30 20:30N 35°02' E 139°41'713.2
2017-Nov-30 19:59N 34°58' E 139°34'714.2
2017-Nov-30 19:28N 34°54' E 139°26'713.0
2017-Nov-30 18:57N 34°50' E 139°20'612.5
2017-Nov-30 18:29N 34°46' E 139°14'713.0
2017-Nov-30 17:57N 34°42' E 139°07'612.3
2017-Nov-30 17:30N 34°39' E 139°02'611.7
2017-Nov-30 17:00N 34°35' E 138°56'813.5
2017-Nov-30 16:26N 34°35' E 138°47'613.6
2017-Nov-30 16:00N 34°34' E 138°40'  

Dump ship's entire track history